Chicago, IL

7:16 PM CDT on September 02, 2014 (GMT -0500)
West Loop - Old St. Pats | Change Station
CLOSE
Current Station
Personal Weather Station
Location: Chicago, IL
Elevation: 548 ft
Nearby Weather Stations

Elev 548 ft 41.88 °N, 87.64 °W | Updated 30 seconds ago

Partly Cloudy
Partly Cloudy
80.2 °F
Feels Like 81 °F
N
2.0
Wind Variable Wind from ESE
Gusts 5.0 mph

Today
High -- | Low -- °F
--% Chance of Precip.
Yesterday
High -- | Low -- °F
Precip. -- in
6:17 AM 7:22 PM
First Quarter, 56% visible
Pressure 29.86 in
Visibility 10.0 miles
Clouds Few 6000 ft
Few 25000 ft
Heat Index 81 °F
Dew Point 58 °F
Humidity 47%
Rainfall 0.00 in
Snow Depth Not available.
UV 0 out of 12
Pollen 9.30 out of 12
Ozone Good
PM2.5 Good
Flu Activity Not available.
METAR KMDW 022351Z 29008KT 10SM FEW060 FEW250 27/13 A2989 RMK AO2 SLP112 T02670133 10294 20267 56004 $

More Conditions Fewer Conditions

Pressure 29.86 in
Visibility 10.0 miles
Clouds Few 6000 ft
Few 25000 ft
Heat Index 81 °F
Dew Point 58 °F
Humidity 47%
Rainfall 0.00 in
Snow Depth Not available.
UV 0 out of 12
Pollen 9.30 out of 12
Ozone Good
PM2.5 Good
Flu Activity Not available.
METAR KMDW 022351Z 29008KT 10SM FEW060 FEW250 27/13 A2989 RMK AO2 SLP112 T02670133 10294 20267 56004 $

More Conditions Fewer Conditions

10-Day Weather Forecast

Almanac

Astronomy

Sep. 02, 2014 Rise Set
Actual Time 6:17 AM CDT 7:22 PM CDT
Civil Twilight 5:48 AM CDT 7:50 PM CDT
Nautical Twilight 5:14 AM CDT 8:24 PM CDT
Astronomical Twilight 4:38 AM CDT 9:00 PM CDT
Moon 2:07 PM CDT (9/2) No Moon Set
Length of Visible Light 14h 02m
Length of Day
13h 04m
Tomorrow will be 2m 43s shorter.
First Quarter, 56% of the Moon is Illuminated
Today
First Quarter
Sep 8
Full
Sep 15
Last Quarter
Sep 24
New
Oct 1
First Quarter

Today's Extremes

State Highs State Lows

Community

WunderPhotos

Upload Photos

1,749,807 photos uploaded!

Nearby

Air Quality

  Air Quality AQ Index Pollutant
Yesterday Good
PM2.5
Yesterday Good
OZONE
Current Good
OZONE
Current Good
PM2.5
Tuesday Good
OZONE
Tuesday Good
PM2.5
Wednesday Good
OZONE
Wednesday Good
PM2.5
Thursday Moderate
OZONE
Thursday Moderate
PM2.5
Friday Moderate
PM2.5
Friday Good
OZONE
Saturday Good
OZONE
Saturday Good
PM2.5
Sunday Good
OZONE
Sunday Good
PM2.5

Snow Depth

Station Depth Elevation
No new snow has been reported.

Earthquake Activity

City Distance Mag. Time & Date
No recent earthquake activity has been reported nearby.
Minimum magnitude displayed is 2.5.

Coastal Water Temperatures

Place Temperature
No Stations Reporting

Nearby Weather Stations